Time;durP1;ratioP1;P1;durP2;ratioP2;P2;SDS_P1;SDS_P2;PMS_P1;PMS_P2;Temp;Humidity;BMP_temperature;BMP_pressure;BME280_temperature;BME280_humidity;BME280_pressure;Samples;Min_cycle;Max_cycle;Signal;HPM_P1;HPM_P2
2022/06/17 00:01:03;;;;;;;5.17;4.70;;;17.80;99.90;;;;;;4900353;29;20494;-79
2022/06/17 00:03:31;;;;;;;5.43;4.93;;;17.80;99.90;;;;;;4897523;29;20660;-75
2022/06/17 00:05:59;;;;;;;5.47;4.33;;;17.70;99.90;;;;;;4897474;29;20555;-75
2022/06/17 00:08:37;;;;;;;4.80;4.30;;;17.70;99.90;;;;;;4897538;29;20441;-76
2022/06/17 00:11:03;;;;;;;4.73;4.23;;;17.70;99.90;;;;;;4897472;29;20445;-76
2022/06/17 00:13:29;;;;;;;4.90;4.40;;;17.60;99.90;;;;;;4897518;29;20444;-76
2022/06/17 00:15:54;;;;;;;7.90;4.90;;;17.60;99.90;;;;;;4897360;29;20436;-76
2022/06/17 00:18:21;;;;;;;4.47;4.07;;;17.60;99.90;;;;;;4897288;29;20275;-79
2022/06/17 00:20:49;;;;;;;7.03;5.30;;;17.60;99.90;;;;;;4897261;29;20578;-77
2022/06/17 00:23:20;;;;;;;5.77;5.03;;;17.50;99.90;;;;;;4897957;29;20464;-76
2022/06/17 00:25:47;;;;;;;6.53;5.90;;;17.50;99.90;;;;;;4900640;29;20429;-76
2022/06/17 00:28:15;;;;;;;5.47;4.97;;;17.40;99.90;;;;;;4900619;29;20432;-76
2022/06/17 00:30:41;;;;;;;5.40;4.90;;;17.50;99.90;;;;;;4900474;29;20881;-76
2022/06/17 00:33:08;;;;;;;6.93;5.20;;;17.40;99.90;;;;;;4900437;29;20437;-77
2022/06/17 00:35:39;;;;;;;9.00;5.27;;;17.30;99.90;;;;;;4900444;29;20945;-77
2022/06/17 00:38:09;;;;;;;6.83;5.37;;;17.20;99.90;;;;;;4900447;29;20429;-77
2022/06/17 00:40:35;;;;;;;10.50;5.63;;;17.20;99.90;;;;;;4900223;29;20509;-77
2022/06/17 00:43:09;;;;;;;6.53;5.10;;;17.10;99.90;;;;;;4900284;29;20937;-76
2022/06/17 00:45:44;;;;;;;12.37;5.80;;;17.10;99.90;;;;;;4900377;29;20436;-76
2022/06/17 00:48:17;;;;;;;5.57;5.07;;;17.10;99.90;;;;;;4900305;29;20435;-77
2022/06/17 00:51:12;;;;;;;6.03;5.13;;;17.10;99.90;;;;;;4900207;29;20441;-78
2022/06/17 00:54:00;;;;;;;5.57;5.03;;;17.10;99.90;;;;;;4901943;29;20421;-79
2022/06/17 00:56:30;;;;;;;6.17;5.57;;;17.10;99.90;;;;;;4900092;29;20444;-76
2022/06/17 00:59:15;;;;;;;8.43;5.90;;;17.10;99.90;;;;;;4900272;29;20771;-75
2022/06/17 01:01:50;;;;;;;8.93;5.20;;;17.10;99.90;;;;;;4900185;29;20492;-75
2022/06/17 01:04:40;;;;;;;5.77;4.60;;;17.00;99.90;;;;;;4899988;29;20427;-76
2022/06/17 01:07:20;;;;;;;4.83;4.37;;;17.00;99.90;;;;;;4899886;29;20827;-77
2022/06/17 01:10:01;;;;;;;6.70;5.23;;;17.00;99.90;;;;;;4900342;29;20421;-78
2022/06/17 01:12:45;;;;;;;5.97;4.87;;;17.00;99.90;;;;;;4899922;29;20436;-78
2022/06/17 01:15:23;;;;;;;6.50;5.80;;;17.00;99.90;;;;;;4899735;29;20424;-78
2022/06/17 01:17:49;;;;;;;4.90;4.27;;;16.90;99.90;;;;;;4899877;29;20424;-79
2022/06/17 01:20:16;;;;;;;5.50;5.00;;;16.80;99.90;;;;;;4899594;29;20910;-79
2022/06/17 01:22:53;;;;;;;7.40;5.40;;;16.80;99.90;;;;;;4900965;29;20436;-81
2022/06/17 01:25:27;;;;;;;6.17;4.90;;;16.80;99.90;;;;;;4899673;29;20461;-80
2022/06/17 04:32:19;;;;;;;5.97;5.37;;;17.00;99.90;;;;;;5193237;23;20561;-85
2022/06/17 04:34:45;;;;;;;4.90;4.50;;;17.00;99.90;;;;;;4919424;29;20432;-82
2022/06/17 04:37:20;;;;;;;6.07;5.47;;;17.00;99.90;;;;;;4902531;29;20590;-84
2022/06/17 04:39:53;;;;;;;6.50;5.80;;;17.10;99.90;;;;;;4918787;29;20210;-83
2022/06/17 04:42:33;;;;;;;7.50;5.20;;;17.10;99.90;;;;;;4917566;29;20491;-83
2022/06/17 04:44:59;;;;;;;8.43;6.33;;;17.10;99.90;;;;;;4918541;29;20801;-83
2022/06/17 04:47:25;;;;;;;8.63;6.67;;;17.20;99.90;;;;;;4918837;29;20434;-83
2022/06/17 04:49:58;;;;;;;7.23;5.20;;;17.20;99.90;;;;;;4918537;29;20527;-83
2022/06/17 04:52:36;;;;;;;6.63;5.53;;;17.30;99.90;;;;;;4918480;29;20215;-83
2022/06/17 04:55:06;;;;;;;7.83;5.60;;;17.30;99.90;;;;;;4918552;29;20527;-84
2022/06/17 04:57:32;;;;;;;6.30;5.70;;;17.40;99.90;;;;;;4918314;29;20831;-83
2022/06/17 05:00:00;;;;;;;6.50;5.90;;;17.40;99.90;;;;;;4918215;29;20502;-85
2022/06/17 05:02:30;;;;;;;8.23;5.33;;;17.40;99.90;;;;;;4918548;29;20797;-84
2022/06/17 05:05:02;;;;;;;7.50;5.70;;;17.50;99.90;;;;;;4918306;29;20438;-84
2022/06/17 05:07:36;;;;;;;10.30;6.13;;;17.50;99.90;;;;;;4918248;29;20471;-84
2022/06/17 05:10:07;;;;;;;7.50;6.23;;;17.50;99.90;;;;;;4917664;29;20842;-82
2022/06/17 05:12:38;;;;;;;10.80;5.57;;;17.70;99.90;;;;;;4918105;29;20440;-81
2022/06/17 05:15:09;;;;;;;5.53;5.03;;;17.80;99.90;;;;;;4917652;29;20431;-82
2022/06/17 05:17:34;;;;;;;6.90;6.13;;;17.90;99.90;;;;;;4917968;29;20468;-82
2022/06/17 05:20:00;;;;;;;9.87;5.50;;;18.00;99.90;;;;;;4918354;29;20498;-81
2022/06/17 05:22:31;;;;;;;7.40;5.27;;;18.10;99.90;;;;;;4918488;29;20192;-82
2022/06/17 05:24:58;;;;;;;8.70;5.90;;;18.20;99.90;;;;;;4918590;29;20190;-82
2022/06/17 05:27:24;;;;;;;16.50;5.70;;;18.30;99.90;;;;;;4918471;29;21022;-84
2022/06/17 05:29:49;;;;;;;6.47;5.10;;;18.50;99.90;;;;;;4918732;29;20522;-83
2022/06/17 05:32:19;;;;;;;9.70;5.13;;;18.50;99.90;;;;;;4918730;29;20357;-84
2022/06/17 05:34:45;;;;;;;9.90;5.03;;;18.60;99.90;;;;;;4918514;29;20180;-84
2022/06/17 05:37:11;;;;;;;6.93;4.30;;;18.60;99.90;;;;;;4918634;29;20416;-83
2022/06/17 05:39:36;;;;;;;6.20;5.00;;;18.70;99.90;;;;;;4919084;29;20459;-83
2022/06/17 05:42:02;;;;;;;6.13;4.93;;;18.80;99.90;;;;;;4919748;29;20184;-83
2022/06/17 05:44:28;;;;;;;5.17;4.03;;;19.00;99.90;;;;;;4918768;29;20187;-84
2022/06/17 05:46:54;;;;;;;8.10;4.70;;;19.10;99.90;;;;;;4917725;29;20539;-82
2022/06/17 05:49:19;;;;;;;4.67;4.17;;;19.10;99.90;;;;;;4917708;29;20176;-82
2022/06/17 05:51:45;;;;;;;8.73;4.67;;;19.20;99.90;;;;;;4917495;29;20581;-84
2022/06/17 05:54:10;;;;;;;5.83;4.10;;;19.30;99.90;;;;;;4917500;29;20176;-84
2022/06/17 05:56:36;;;;;;;7.23;4.40;;;19.50;99.90;;;;;;4917262;29;20222;-84
2022/06/17 05:59:01;;;;;;;5.50;4.20;;;19.60;99.90;;;;;;4917038;29;20224;-84
2022/06/17 06:01:27;;;;;;;5.90;3.53;;;19.80;99.90;;;;;;4917157;29;20218;-86
2022/06/17 06:03:52;;;;;;;10.03;3.30;;;19.90;99.90;;;;;;4917150;29;20187;-84
2022/06/17 06:06:18;;;;;;;3.60;3.30;;;20.10;99.90;;;;;;4917130;29;20238;-84
2022/06/17 06:08:43;;;;;;;3.53;3.23;;;20.10;99.90;;;;;;4916712;29;20270;-84
2022/06/17 06:11:09;;;;;;;4.20;3.17;;;20.10;99.90;;;;;;4916985;29;20180;-84
2022/06/17 06:13:35;;;;;;;3.97;2.90;;;20.00;99.90;;;;;;4916808;29;20176;-81
2022/06/17 06:16:01;;;;;;;6.37;3.40;;;20.10;99.90;;;;;;4899738;29;20172;-84
2022/06/17 06:18:36;;;;;;;5.20;2.90;;;20.20;99.90;;;;;;4899728;29;20939;-83
2022/06/17 06:21:04;;;;;;;3.67;3.37;;;20.20;99.90;;;;;;4915719;29;20483;-83
2022/06/17 06:23:31;;;;;;;4.83;3.43;;;20.20;99.90;;;;;;4916704;29;20427;-84
2022/06/17 06:25:57;;;;;;;6.37;2.90;;;20.30;99.90;;;;;;4916542;29;20954;-78
2022/06/17 06:28:25;;;;;;;5.80;3.50;;;20.50;99.90;;;;;;4916409;29;20427;-83
2022/06/17 06:30:54;;;;;;;5.60;3.03;;;20.70;99.90;;;;;;4916261;29;20231;-82
2022/06/17 06:33:20;;;;;;;3.67;3.07;;;20.90;99.90;;;;;;4916069;29;20440;-82
2022/06/17 06:35:46;;;;;;;6.27;3.50;;;21.10;99.90;;;;;;4916410;29;20442;-81
2022/06/17 06:38:12;;;;;;;5.30;2.70;;;21.20;99.90;;;;;;4916359;29;20271;-82
2022/06/17 06:40:37;;;;;;;5.43;3.30;;;21.30;99.90;;;;;;4916178;29;20230;-79
2022/06/17 06:43:03;;;;;;;3.27;2.40;;;21.60;99.90;;;;;;4916036;29;20526;-75
2022/06/17 06:45:35;;;;;;;9.03;3.50;;;21.70;99.90;;;;;;4916244;29;20184;-72
2022/06/17 06:48:03;;;;;;;7.10;3.13;;;21.80;99.90;;;;;;4915983;29;20295;-78
2022/06/17 06:50:31;;;;;;;3.10;2.73;;;22.00;99.90;;;;;;4916104;29;20432;-78
2022/06/17 06:52:57;;;;;;;3.10;2.10;;;22.10;99.90;;;;;;4916079;29;20514;-76
2022/06/17 06:55:23;;;;;;;2.53;2.33;;;22.20;99.90;;;;;;4916041;29;20432;-77
2022/06/17 06:57:54;;;;;;;4.20;2.90;;;22.20;99.90;;;;;;4915986;29;20435;-77
2022/06/17 07:00:29;;;;;;;4.50;2.60;;;22.30;99.90;;;;;;4898838;29;20695;-77
2022/06/17 07:02:55;;;;;;;2.40;2.20;;;22.50;99.90;;;;;;4915977;29;20439;-77
2022/06/17 07:05:20;;;;;;;7.40;3.03;;;22.60;99.90;;;;;;4916008;29;20436;-76
2022/06/17 07:07:46;;;;;;;3.60;2.80;;;22.60;99.90;;;;;;4915914;29;20176;-76
2022/06/17 07:10:16;;;;;;;4.67;2.50;;;22.60;99.20;;;;;;4915884;29;20207;-76
2022/06/17 07:12:41;;;;;;;3.13;2.63;;;22.60;97.50;;;;;;4915810;29;20187;-76
2022/06/17 07:15:08;;;;;;;3.07;2.30;;;22.60;97.50;;;;;;4915746;29;20444;-77
2022/06/17 07:17:34;;;;;;;5.37;3.00;;;22.70;97.60;;;;;;4915872;29;20179;-76
2022/06/17 07:19:59;;;;;;;3.07;2.67;;;22.60;99.10;;;;;;4915588;29;20471;-78
2022/06/17 07:22:25;;;;;;;6.40;2.93;;;22.70;99.90;;;;;;4915926;29;20199;-81
2022/06/17 07:24:50;;;;;;;4.73;2.93;;;22.80;99.40;;;;;;4915663;29;20251;-76
2022/06/17 07:27:16;;;;;;;3.83;3.43;;;22.80;99.40;;;;;;4915607;29;20281;-78
2022/06/17 07:29:42;;;;;;;2.83;2.13;;;23.00;98.40;;;;;;4915649;29;20551;-77
2022/06/17 07:32:07;;;;;;;9.70;4.00;;;23.00;96.20;;;;;;4916232;29;20487;-76
2022/06/17 07:34:33;;;;;;;9.30;2.57;;;23.10;98.60;;;;;;4919468;29;20233;-80
2022/06/17 07:39:57;;;;;;;3.80;2.40;;;23.20;98.40;;;;;;4919585;29;20219;-78
2022/06/17 07:42:37;;;;;;;2.80;2.60;;;23.20;96.00;;;;;;4919375;29;20938;-79
2022/06/17 07:45:05;;;;;;;8.10;2.80;;;23.30;98.40;;;;;;4919545;29;20435;-82
2022/06/17 07:47:30;;;;;;;3.57;2.83;;;23.40;93.00;;;;;;4919354;29;20448;-77
2022/06/17 07:49:56;;;;;;;4.30;2.40;;;23.50;92.60;;;;;;4919274;29;20427;-77
2022/06/17 07:52:21;;;;;;;3.60;2.27;;;23.60;92.20;;;;;;4919383;29;20179;-78
2022/06/17 07:54:47;;;;;;;3.30;2.97;;;23.70;89.10;;;;;;4919174;29;20687;-77
2022/06/17 07:57:13;;;;;;;5.90;3.43;;;23.70;86.50;;;;;;4919235;29;20234;-78
2022/06/17 07:59:39;;;;;;;8.40;3.80;;;23.60;85.50;;;;;;4918908;29;20180;-81
2022/06/17 08:02:05;;;;;;;7.57;3.27;;;23.70;85.90;;;;;;4918638;29;20483;-83
2022/06/17 08:04:32;;;;;;;3.83;2.60;;;23.70;83.70;;;;;;4919305;29;20271;-79
2022/06/17 08:06:57;;;;;;;3.73;3.10;;;23.80;89.80;;;;;;4918506;29;20439;-80
2022/06/17 08:09:24;;;;;;;6.07;2.73;;;23.80;88.40;;;;;;4918808;29;20523;-80
2022/06/17 08:11:50;;;;;;;5.93;2.93;;;23.90;85.00;;;;;;4919571;29;20207;-81
2022/06/17 08:14:16;;;;;;;5.40;3.03;;;23.90;91.70;;;;;;4919867;29;20770;-80
2022/06/17 08:16:42;;;;;;;3.20;3.00;;;24.00;92.40;;;;;;4919774;29;20420;-81
2022/06/17 08:19:07;;;;;;;5.00;3.40;;;24.00;85.80;;;;;;4919539;29;20184;-81
2022/06/17 08:21:34;;;;;;;4.67;3.10;;;24.10;83.80;;;;;;4919353;29;20215;-81
2022/06/17 08:23:59;;;;;;;4.37;2.90;;;24.20;85.10;;;;;;4919365;29;20176;-81
2022/06/17 08:26:25;;;;;;;4.03;3.57;;;24.20;85.60;;;;;;4919713;29;20986;-85
2022/06/17 08:28:50;;;;;;;5.27;2.90;;;24.20;84.50;;;;;;4919778;29;20207;-85
2022/06/17 08:31:16;;;;;;;3.23;2.93;;;24.20;84.30;;;;;;4919461;29;20558;-82
2022/06/17 08:33:41;;;;;;;8.40;3.67;;;24.20;88.50;;;;;;4919512;29;20179;-81
2022/06/17 08:36:10;;;;;;;3.53;3.17;;;24.30;80.80;;;;;;4919469;29;20183;-79
2022/06/17 08:38:41;;;;;;;8.30;4.30;;;24.30;80.60;;;;;;4919648;29;20266;-81
2022/06/17 08:41:27;;;;;;;3.90;3.07;;;24.30;84.40;;;;;;4902476;29;20486;-81
2022/06/17 08:44:11;;;;;;;3.30;3.03;;;24.30;81.90;;;;;;4918514;29;20432;-82
2022/06/17 08:47:16;;;;;;;6.27;3.20;;;24.40;81.70;;;;;;4919301;29;20459;-82
2022/06/17 08:49:53;;;;;;;4.50;3.00;;;24.40;83.10;;;;;;4919536;29;20514;-85
2022/06/17 08:52:24;;;;;;;7.73;3.77;;;24.40;86.90;;;;;;4919567;29;20785;-81
2022/06/17 08:55:02;;;;;;;8.10;3.47;;;24.30;87.90;;;;;;4919215;29;20424;-81
2022/06/17 08:57:59;;;;;;;5.00;3.60;;;24.30;87.70;;;;;;4919357;29;20519;-75
2022/06/17 09:00:56;;;;;;;4.77;3.70;;;24.40;88.30;;;;;;4918823;29;20559;-77
2022/06/17 09:03:33;;;;;;;5.73;3.50;;;24.50;90.30;;;;;;4919105;29;20458;-78
2022/06/17 09:06:02;;;;;;;8.90;3.63;;;24.60;86.20;;;;;;4918812;29;20419;-77
2022/06/17 09:08:34;;;;;;;4.07;3.20;;;24.60;86.50;;;;;;4918899;29;20514;-78
2022/06/17 09:11:23;;;;;;;4.03;2.80;;;24.70;85.10;;;;;;4917155;29;20431;-81
2022/06/17 09:14:14;;;;;;;4.70;3.20;;;24.70;88.10;;;;;;4917941;29;20191;-82
2022/06/17 09:16:58;;;;;;;5.13;3.80;;;24.70;88.80;;;;;;4917960;29;20424;-79
2022/06/17 09:19:30;;;;;;;4.63;3.17;;;24.70;85.90;;;;;;4917217;29;20452;-78
2022/06/17 09:22:15;;;;;;;5.00;3.43;;;24.70;89.00;;;;;;4897786;29;20443;-85
2022/06/17 09:24:42;;;;;;;6.13;3.37;;;24.80;88.60;;;;;;4898423;29;20858;-79
2022/06/17 09:27:32;;;;;;;4.40;2.73;;;24.90;83.50;;;;;;4917686;29;20455;-85
2022/06/17 09:30:23;;;;;;;16.23;3.83;;;24.80;89.70;;;;;;4915365;29;20518;-87
2022/06/17 09:33:04;;;;;;;4.63;2.87;;;24.70;86.60;;;;;;4916622;29;20486;-78
2022/06/17 09:35:36;;;;;;;6.17;3.90;;;24.70;88.70;;;;;;4916394;29;20457;-82
2022/06/17 09:38:21;;;;;;;3.90;3.20;;;24.70;89.10;;;;;;4915317;29;20466;-81
2022/06/17 09:41:18;;;;;;;3.30;2.90;;;24.70;86.70;;;;;;4916061;29;20492;-82
2022/06/17 09:43:59;;;;;;;4.10;3.00;;;24.80;83.00;;;;;;4917015;29;20420;-83
2022/06/17 09:46:24;;;;;;;5.37;3.20;;;24.70;87.40;;;;;;4915899;29;20548;-81
2022/06/17 09:48:50;;;;;;;4.30;2.10;;;24.80;87.30;;;;;;4917031;29;21504;-81
2022/06/17 09:51:25;;;;;;;3.17;2.50;;;24.80;87.40;;;;;;4916960;29;20631;-79
2022/06/17 09:53:56;;;;;;;10.87;3.23;;;24.90;88.00;;;;;;4916882;29;20183;-80
2022/06/17 09:56:49;;;;;;;3.93;3.00;;;25.00;90.70;;;;;;4916880;29;20436;-80
2022/06/17 09:59:32;;;;;;;2.90;2.60;;;25.00;89.80;;;;;;4916432;29;20455;-80
2022/06/17 10:02:16;;;;;;;5.87;2.90;;;25.20;85.30;;;;;;4917127;29;20849;-81
2022/06/17 10:04:42;;;;;;;3.97;2.93;;;25.20;87.40;;;;;;4916490;29;20439;-83
2022/06/17 10:07:20;;;;;;;3.57;3.10;;;25.20;81.20;;;;;;4916411;29;20439;-83
2022/06/17 10:10:24;;;;;;;4.87;2.57;;;25.20;83.00;;;;;;4898038;29;20172;-83
2022/06/17 10:13:07;;;;;;;6.63;2.90;;;25.40;82.70;;;;;;4904195;29;20511;-83
2022/06/17 10:18:54;;;;;;;3.10;2.13;;;25.50;76.00;;;;;;4850413;29;20480;-83
2022/06/17 10:21:40;;;;;;;2.60;2.40;;;25.50;74.10;;;;;;4886694;29;20480;-83
2022/06/17 10:24:27;;;;;;;4.30;2.70;;;25.50;75.30;;;;;;4897710;29;20412;-84
2022/06/17 10:26:58;;;;;;;3.63;2.63;;;25.50;77.40;;;;;;4897977;29;20436;-83
2022/06/17 10:29:58;;;;;;;2.60;2.00;;;25.60;77.50;;;;;;4898241;29;20432;-83
2022/06/17 10:32:25;;;;;;;12.53;2.50;;;25.70;72.80;;;;;;4897765;29;20511;-83
2022/06/17 10:34:57;;;;;;;2.87;2.50;;;25.50;69.60;;;;;;4897821;29;20435;-83
2022/06/17 10:37:23;;;;;;;7.07;1.90;;;25.70;70.60;;;;;;4898021;29;20488;-83
2022/06/17 10:39:49;;;;;;;2.67;2.37;;;25.70;69.20;;;;;;4897740;29;20464;-84
2022/06/17 10:42:17;;;;;;;5.50;3.07;;;25.90;70.20;;;;;;4898341;29;20275;-84
2022/06/17 10:44:59;;;;;;;3.43;1.90;;;25.90;68.70;;;;;;4898498;29;20499;-83
2022/06/17 10:47:32;;;;;;;2.20;2.00;;;25.90;74.00;;;;;;4898173;29;20978;-83
2022/06/17 10:50:02;;;;;;;2.70;2.30;;;26.00;66.20;;;;;;4897329;29;20442;-77
2022/06/17 10:52:44;;;;;;;2.00;1.80;;;26.10;67.20;;;;;;4897193;29;20176;-76
2022/06/17 10:55:23;;;;;;;3.40;2.43;;;26.30;69.30;;;;;;4912281;29;20463;-78
2022/06/17 10:58:16;;;;;;;2.20;1.80;;;26.30;65.50;;;;;;4915664;29;20483;-77
2022/06/17 11:00:59;;;;;;;3.00;1.93;;;26.40;63.00;;;;;;4914336;29;20479;-76
2022/06/17 11:03:27;;;;;;;2.93;1.70;;;26.60;62.60;;;;;;4914774;29;20795;-76
2022/06/17 11:06:20;;;;;;;4.80;2.00;;;26.60;61.20;;;;;;4913127;29;20840;-77
2022/06/17 11:08:52;;;;;;;2.27;2.07;;;26.80;59.60;;;;;;4906178;29;20432;-77
2022/06/17 11:14:34;;;;;;;3.50;1.60;;;26.90;61.10;;;;;;4915051;29;20485;-81
2022/06/17 11:17:13;;;;;;;3.40;1.53;;;26.90;60.90;;;;;;4912995;29;20954;-75
2022/06/17 11:19:41;;;;;;;2.40;1.60;;;27.00;57.80;;;;;;4912999;29;20439;-76
2022/06/17 11:22:36;;;;;;;3.13;1.73;;;27.20;58.50;;;;;;4915184;29;20436;-76
2022/06/17 11:25:26;;;;;;;2.00;1.80;;;27.10;58.70;;;;;;4915318;29;20471;-76
2022/06/17 11:27:59;;;;;;;3.60;2.30;;;27.10;60.30;;;;;;4915307;29;20443;-75
2022/06/17 11:30:34;;;;;;;4.57;2.00;;;27.20;57.50;;;;;;4913977;29;20855;-75
2022/06/17 11:33:01;;;;;;;2.00;1.90;;;27.20;58.20;;;;;;4898878;29;20470;-75
2022/06/17 11:35:32;;;;;;;2.23;2.03;;;27.30;58.40;;;;;;4915237;29;20924;-77
2022/06/17 11:38:00;;;;;;;2.83;1.53;;;27.40;57.00;;;;;;4915324;29;20440;-77
2022/06/17 11:40:30;;;;;;;1.93;1.63;;;27.30;54.70;;;;;;4915315;29;20467;-77
2022/06/17 11:43:03;;;;;;;2.27;2.07;;;27.40;56.40;;;;;;4915176;29;20935;-75
2022/06/17 11:45:31;;;;;;;2.77;1.67;;;27.30;58.90;;;;;;4915238;29;20475;-76
2022/06/17 11:48:09;;;;;;;2.53;2.23;;;27.40;59.50;;;;;;4915273;29;20432;-77
2022/06/17 11:50:40;;;;;;;3.30;1.50;;;27.40;58.70;;;;;;4913102;29;20448;-79
2022/06/17 11:53:12;;;;;;;3.07;1.90;;;27.30;58.30;;;;;;4915110;29;20495;-76
2022/06/17 11:55:43;;;;;;;2.33;2.03;;;27.40;58.00;;;;;;4915212;29;20994;-78
2022/06/17 11:58:10;;;;;;;2.67;1.80;;;27.40;57.30;;;;;;4915425;29;20475;-76
2022/06/17 12:00:45;;;;;;;3.00;2.00;;;27.50;57.60;;;;;;4915241;29;20952;-74
2022/06/17 12:03:13;;;;;;;2.53;1.70;;;27.50;56.50;;;;;;4915455;29;20802;-75
2022/06/17 12:05:39;;;;;;;3.13;1.70;;;27.50;56.00;;;;;;4915456;29;20427;-74
2022/06/17 12:08:17;;;;;;;1.87;1.63;;;27.50;55.20;;;;;;4915166;29;20463;-74
2022/06/17 12:10:50;;;;;;;1.70;1.60;;;27.60;57.50;;;;;;4915439;29;20522;-74
2022/06/17 12:13:36;;;;;;;3.33;1.80;;;27.60;56.90;;;;;;4915233;29;20443;-75
2022/06/17 12:16:40;;;;;;;2.20;2.00;;;27.60;57.30;;;;;;4915311;29;20811;-75
2022/06/17 12:19:13;;;;;;;3.00;1.80;;;27.60;58.90;;;;;;4915710;29;20432;-76
2022/06/17 12:22:09;;;;;;;2.00;1.80;;;27.70;58.20;;;;;;4918617;29;20486;-77
2022/06/17 12:24:48;;;;;;;4.10;1.77;;;27.70;56.70;;;;;;4918328;29;20450;-76
2022/06/17 12:27:17;;;;;;;1.87;1.70;;;27.70;57.70;;;;;;4917941;29;20443;-77
2022/06/17 12:29:54;;;;;;;1.87;1.77;;;27.80;55.40;;;;;;4918156;29;20802;-77
2022/06/17 12:32:33;;;;;;;1.90;1.70;;;27.90;53.60;;;;;;4915693;29;20546;-77
2022/06/17 12:35:16;;;;;;;2.23;1.70;;;27.90;55.50;;;;;;4918412;29;20467;-80
2022/06/17 12:37:49;;;;;;;2.07;1.70;;;27.90;55.20;;;;;;4918658;29;20439;-82
2022/06/17 12:40:40;;;;;;;3.10;1.93;;;27.90;57.20;;;;;;4918617;29;20575;-81
2022/06/17 12:43:14;;;;;;;4.80;1.70;;;28.00;53.00;;;;;;4918265;29;20438;-76
2022/06/17 12:45:51;;;;;;;1.40;1.30;;;28.10;52.10;;;;;;4918275;29;20427;-76
2022/06/17 12:48:42;;;;;;;4.20;2.30;;;28.20;53.50;;;;;;4918269;29;20844;-74
2022/06/17 12:54:23;;;;;;;3.40;1.70;;;28.40;56.10;;;;;;4918170;29;20491;-74
2022/06/17 12:57:30;;;;;;;1.30;1.20;;;28.40;51.70;;;;;;4918102;29;20424;-74
2022/06/17 13:00:17;;;;;;;4.60;1.80;;;28.40;53.20;;;;;;4917821;29;20495;-80
2022/06/17 13:03:29;;;;;;;1.57;1.47;;;28.30;53.10;;;;;;4918038;29;20423;-80
2022/06/17 13:05:58;;;;;;;1.80;1.70;;;28.50;52.60;;;;;;4917269;29;20439;-76
2022/06/17 13:08:30;;;;;;;2.73;1.83;;;28.80;49.90;;;;;;4915277;29;20428;-76
2022/06/17 13:11:16;;;;;;;2.20;1.83;;;28.90;53.60;;;;;;4917633;29;20503;-78
2022/06/17 13:14:17;;;;;;;2.45;1.50;;;28.70;51.10;;;;;;4900649;29;20803;-78
2022/06/17 13:17:01;;;;;;;2.17;1.97;;;28.90;51.40;;;;;;4916392;29;20180;-86
2022/06/17 13:19:29;;;;;;;2.23;1.70;;;29.00;48.10;;;;;;4917356;29;21042;-82
2022/06/17 13:22:21;;;;;;;3.63;1.40;;;29.10;49.80;;;;;;4917553;29;20975;-81
2022/06/17 13:24:54;;;;;;;2.87;1.70;;;29.20;48.90;;;;;;4917651;29;20783;-77
2022/06/17 13:27:22;;;;;;;1.63;1.40;;;29.30;48.00;;;;;;4917407;29;20915;-82
2022/06/17 13:29:59;;;;;;;3.30;1.77;;;29.20;47.90;;;;;;4917450;29;20969;-81
2022/06/17 13:32:48;;;;;;;4.10;1.70;;;29.30;48.60;;;;;;4901448;29;20475;-80
2022/06/17 13:35:35;;;;;;;1.70;1.60;;;29.40;48.00;;;;;;4919294;29;20460;-84
2022/06/17 13:38:13;;;;;;;4.23;1.50;;;29.40;47.50;;;;;;4918477;29;20424;-85
2022/06/17 13:40:47;;;;;;;3.80;1.77;;;29.50;49.20;;;;;;4918227;29;20971;-85
2022/06/17 13:43:18;;;;;;;1.40;1.30;;;29.50;48.10;;;;;;4918138;29;20436;-85
2022/06/17 13:46:06;;;;;;;2.83;1.90;;;29.70;45.10;;;;;;4917997;29;20419;-86
2022/06/17 13:48:58;;;;;;;1.60;1.50;;;29.80;46.80;;;;;;4918036;29;20518;-82
2022/06/17 13:51:39;;;;;;;1.93;1.73;;;29.80;48.10;;;;;;4913779;29;20432;-87
2022/06/17 13:54:17;;;;;;;3.53;1.63;;;29.80;48.50;;;;;;4901292;29;20793;-87
2022/06/17 13:57:02;;;;;;;5.47;1.60;;;29.80;49.10;;;;;;4918157;29;20428;-87
2022/06/17 13:59:30;;;;;;;5.43;2.10;;;30.00;45.90;;;;;;4918131;29;20776;-87
2022/06/17 14:02:10;;;;;;;1.83;1.63;;;30.10;47.20;;;;;;4918005;29;20562;-87
2022/06/17 14:05:05;;;;;;;1.33;1.17;;;30.10;49.60;;;;;;4918064;29;20420;-85
2022/06/17 14:07:55;;;;;;;1.90;1.30;;;30.10;47.20;;;;;;4918120;29;20431;-84
2022/06/17 14:10:27;;;;;;;1.40;1.10;;;30.20;46.30;;;;;;4906127;29;20924;-86
2022/06/17 14:12:52;;;;;;;1.93;1.47;;;30.20;44.30;;;;;;4916640;29;20519;-84
2022/06/17 14:15:27;;;;;;;1.93;1.40;;;30.30;43.10;;;;;;4918002;29;20560;-85
2022/06/17 14:17:56;;;;;;;4.50;1.80;;;30.30;43.70;;;;;;4917839;29;20211;-86
2022/06/17 14:20:38;;;;;;;3.30;1.73;;;30.30;43.30;;;;;;4900642;29;20479;-87
2022/06/17 14:23:11;;;;;;;2.03;1.40;;;30.30;42.90;;;;;;4917655;29;20796;-86
2022/06/17 14:25:53;;;;;;;2.33;1.50;;;30.30;43.60;;;;;;4917577;29;20436;-86
2022/06/17 14:28:38;;;;;;;3.50;1.53;;;30.20;43.60;;;;;;4917735;29;20435;-88
2022/06/17 14:31:27;;;;;;;4.00;2.37;;;30.20;41.60;;;;;;4917289;29;20837;-84
2022/06/17 14:33:55;;;;;;;1.30;1.07;;;30.10;42.30;;;;;;4904604;29;20432;-79
2022/06/17 14:36:42;;;;;;;2.17;1.17;;;30.20;44.00;;;;;;4917520;29;20840;-84
2022/06/17 14:39:41;;;;;;;1.73;1.30;;;30.20;41.70;;;;;;4917729;29;20432;-87
2022/06/17 14:42:19;;;;;;;1.40;1.00;;;30.40;41.60;;;;;;4916802;29;20455;-82
2022/06/17 14:45:09;;;;;;;1.40;1.30;;;30.40;41.20;;;;;;4917312;29;20439;-81
2022/06/17 14:47:38;;;;;;;1.57;1.33;;;30.40;42.20;;;;;;4917480;29;20927;-85
2022/06/17 14:50:24;;;;;;;1.40;1.30;;;30.50;42.20;;;;;;4917564;29;20783;-87
2022/06/17 14:52:52;;;;;;;2.40;1.30;;;30.50;41.30;;;;;;4918191;29;20450;-83
2022/06/17 14:55:26;;;;;;;2.07;1.47;;;30.50;43.60;;;;;;4916759;29;20423;-86
2022/06/17 14:58:00;;;;;;;1.63;1.50;;;30.50;43.10;;;;;;4919936;29;20455;-82
2022/06/17 15:00:51;;;;;;;2.30;1.47;;;30.50;43.40;;;;;;4921148;29;20864;-77
2022/06/17 15:03:20;;;;;;;2.27;1.63;;;30.60;41.90;;;;;;4916699;29;20570;-80
2022/06/17 15:05:47;;;;;;;3.13;1.63;;;30.60;43.40;;;;;;4919423;29;20850;-82
2022/06/17 15:08:13;;;;;;;2.00;1.50;;;30.60;42.30;;;;;;4918247;29;20580;-81
2022/06/17 15:10:56;;;;;;;2.50;1.50;;;30.70;42.70;;;;;;4916755;29;20453;-82
2022/06/17 15:16:15;;;;;;;2.30;1.53;;;30.70;43.50;;;;;;4916908;29;20442;-81
2022/06/17 15:18:41;;;;;;;3.93;1.90;;;30.70;42.80;;;;;;4916290;29;20438;-82
2022/06/17 15:21:18;;;;;;;3.50;1.90;;;30.80;44.70;;;;;;4916332;29;20574;-82
2022/06/17 15:24:03;;;;;;;1.73;1.63;;;30.70;44.90;;;;;;4916112;29;20240;-82
2022/06/17 15:26:42;;;;;;;2.60;1.50;;;30.70;42.40;;;;;;4916212;29;20439;-84
2022/06/17 15:29:17;;;;;;;1.80;1.47;;;30.70;43.40;;;;;;4915015;29;20438;-83
2022/06/17 15:31:48;;;;;;;2.00;1.50;;;30.70;43.70;;;;;;4915716;29;20475;-83
2022/06/17 15:34:34;;;;;;;5.57;2.00;;;30.70;42.30;;;;;;4899280;29;20432;-81
2022/06/17 15:37:00;;;;;;;2.27;1.50;;;30.60;41.80;;;;;;4915496;29;20443;-80
2022/06/17 15:39:28;;;;;;;2.50;2.30;;;30.50;43.90;;;;;;4916318;29;20475;-80
2022/06/17 15:42:00;;;;;;;3.10;1.73;;;30.60;41.80;;;;;;4916182;29;20494;-78
2022/06/17 15:44:40;;;;;;;6.47;2.00;;;30.50;43.40;;;;;;4916559;29;20460;-81
2022/06/17 15:47:09;;;;;;;6.70;2.10;;;30.40;44.70;;;;;;4916681;29;20443;-78
2022/06/17 15:49:41;;;;;;;3.93;2.30;;;30.40;44.10;;;;;;4916768;29;20424;-80
2022/06/17 15:52:06;;;;;;;2.20;2.00;;;30.30;46.00;;;;;;4916624;29;20420;-83
2022/06/17 15:54:33;;;;;;;2.00;1.60;;;30.30;44.40;;;;;;4919381;29;20427;-85
2022/06/17 15:57:00;;;;;;;2.03;1.47;;;30.30;45.10;;;;;;4920166;29;20325;-77
2022/06/17 15:59:29;;;;;;;2.03;1.83;;;30.30;44.30;;;;;;4920265;29;20428;-82
2022/06/17 16:02:15;;;;;;;3.00;1.57;;;30.40;43.90;;;;;;4920209;29;20490;-86
2022/06/17 16:04:40;;;;;;;2.70;1.80;;;30.30;45.30;;;;;;4920030;29;20448;-80
2022/06/17 16:07:15;;;;;;;3.00;1.93;;;30.30;43.50;;;;;;4920172;29;20435;-83
2022/06/17 16:09:45;;;;;;;1.83;1.63;;;30.20;42.80;;;;;;4919820;29;20171;-80
2022/06/17 16:12:23;;;;;;;2.10;1.90;;;30.10;44.00;;;;;;4920019;29;20510;-78
2022/06/17 16:15:23;;;;;;;4.80;1.93;;;30.10;43.70;;;;;;4920222;29;20466;-82
2022/06/17 16:17:51;;;;;;;4.73;1.73;;;30.00;44.40;;;;;;4918559;29;20436;-78
2022/06/17 16:20:36;;;;;;;1.67;1.57;;;29.90;44.50;;;;;;4919938;29;20582;-81
2022/06/17 16:23:30;;;;;;;2.80;1.77;;;29.80;44.70;;;;;;4919589;29;20467;-77
2022/06/17 16:25:58;;;;;;;5.00;1.60;;;29.80;44.50;;;;;;4918958;29;20436;-77
2022/06/17 16:28:35;;;;;;;4.63;1.93;;;29.90;44.10;;;;;;4918813;29;20523;-80
2022/06/17 16:31:02;;;;;;;2.93;1.83;;;29.90;45.10;;;;;;4918254;29;20514;-80
2022/06/17 16:33:30;;;;;;;3.20;2.30;;;29.90;44.70;;;;;;4918473;29;20432;-79
2022/06/17 16:36:08;;;;;;;7.93;1.97;;;29.90;43.90;;;;;;4918444;29;20431;-79
2022/06/17 16:38:55;;;;;;;3.47;2.40;;;29.90;44.30;;;;;;4918747;29;20868;-79
2022/06/17 16:44:36;;;;;;;2.27;2.07;;;29.90;46.30;;;;;;4918428;29;20443;-79